Time;durP1;ratioP1;P1;durP2;ratioP2;P2;SDS_P1;SDS_P2;PMS_P1;PMS_P2;Temp;Humidity;BMP_temperature;BMP_pressure;BME280_temperature;BME280_humidity;BME280_pressure;Samples;Min_cycle;Max_cycle;Signal;HPM_P1;HPM_P2
2022/07/05 00:01:41;;;;;;;;;1.00;1.00;;;;;20.42;46.69;101680.63;5054629;28;45362;-84
2022/07/05 00:04:07;;;;;;;;;1.00;1.00;;;;;20.38;46.52;101675.25;5055098;28;45288;-84
2022/07/05 00:06:32;;;;;;;;;1.00;1.00;;;;;20.28;46.78;101663.59;5054896;28;45472;-87
2022/07/05 00:09:00;;;;;;;;;1.75;1.75;;;;;20.39;46.35;101685.94;5035707;28;47025;-83
2022/07/05 00:11:29;;;;;;;;;1.00;1.00;;;;;20.16;46.81;101651.03;5053942;28;45884;-83
2022/07/05 00:13:54;;;;;;;;;0.75;0.75;;;;;19.79;46.44;101593.72;5036138;28;45580;-84
2022/07/05 00:16:20;;;;;;;;;1.00;1.00;;;;;20.17;46.89;101679.50;5045298;28;45391;-87
2022/07/05 00:18:45;;;;;;;;;2.00;1.00;;;;;19.79;47.03;101607.06;5041593;28;48362;-84
2022/07/05 00:21:10;;;;;;;;;1.00;1.00;;;;;20.01;46.88;101658.88;5061341;28;45517;-87
2022/07/05 00:23:36;;;;;;;;;1.00;1.00;;;;;20.07;47.20;101677.63;5060957;28;45463;-86
2022/07/05 00:26:01;;;;;;;;;2.00;1.00;;;;;20.26;47.06;101724.09;5061647;28;45591;-86
2022/07/05 00:28:26;;;;;;;;;1.00;1.00;;;;;19.87;47.35;101650.72;5061106;28;45468;-87
2022/07/05 00:30:52;;;;;;;;;1.00;1.00;;;;;20.12;47.48;101699.91;5061236;28;45332;-88
2022/07/05 00:33:17;;;;;;;;;2.75;1.00;;;;;19.97;47.21;101683.75;5061203;28;45276;-83
2022/07/05 00:35:42;;;;;;;;;1.00;1.00;;;;;20.03;47.66;101703.38;5061476;28;45267;-85
2022/07/05 00:38:08;;;;;;;;;1.75;1.50;;;;;19.81;47.62;101672.91;5060562;28;45415;-84
2022/07/05 00:40:34;;;;;;;;;2.00;2.00;;;;;19.75;47.95;101667.50;5061293;28;45375;-84
2022/07/05 00:42:59;;;;;;;;;2.00;1.50;;;;;19.74;48.10;101667.47;5060657;28;45462;-86
2022/07/05 00:45:24;;;;;;;;;1.00;1.00;;;;;19.81;48.07;101688.91;5061330;28;45565;-83
2022/07/05 00:47:50;;;;;;;;;2.00;1.00;;;;;19.90;48.33;101701.47;5061136;28;45465;-84
2022/07/05 00:50:15;;;;;;;;;1.75;1.00;;;;;19.85;48.21;101687.16;5042519;28;45519;-87
2022/07/05 00:52:40;;;;;;;;;1.00;1.00;;;;;19.87;48.43;101698.75;5061029;28;45334;-83
2022/07/05 00:55:07;;;;;;;;;1.25;0.75;;;;;19.81;48.51;101702.25;5059644;28;45630;-86
2022/07/05 00:57:34;;;;;;;;;1.00;1.00;;;;;19.64;48.77;101669.13;5060464;28;45914;-87
2022/07/05 00:59:59;;;;;;;;;1.00;1.00;;;;;19.74;48.29;101699.47;5061034;28;45968;-83
2022/07/05 01:02:25;;;;;;;;;1.00;1.00;;;;;19.79;48.60;101714.66;5043081;28;45298;-84
2022/07/05 01:04:51;;;;;;;;;1.00;1.00;;;;;19.53;48.84;101679.63;5060988;28;45558;-84
2022/07/05 01:07:21;;;;;;;;;1.75;1.25;;;;;19.53;48.66;101687.63;5060439;28;45591;-83
2022/07/05 01:09:46;;;;;;;;;1.00;1.00;;;;;19.52;48.73;101682.28;5036979;28;45963;-84
2022/07/05 01:12:12;;;;;;;;;1.00;1.00;;;;;19.53;48.68;101692.97;5022495;28;45415;-85
2022/07/05 01:14:40;;;;;;;;;1.75;1.00;;;;;19.55;49.33;101706.31;5040624;28;45451;-83
2022/07/05 01:17:06;;;;;;;;;1.50;1.50;;;;;19.50;48.84;101708.91;5022065;28;46234;-87
2022/07/05 01:19:31;;;;;;;;;2.00;1.00;;;;;19.38;48.83;101686.53;5040757;28;45451;-84
2022/07/05 01:22:03;;;;;;;;;1.75;1.25;;;;;19.26;49.62;101681.91;5040130;28;45442;-85
2022/07/05 01:24:29;;;;;;;;;1.00;1.00;;;;;19.39;49.68;101705.22;5040282;28;45533;-87
2022/07/05 01:26:55;;;;;;;;;1.00;1.00;;;;;19.24;49.94;101686.34;5054198;28;45675;-88
2022/07/05 01:29:20;;;;;;;;;1.00;1.00;;;;;19.27;49.43;101697.06;5056468;28;45701;-86
2022/07/05 01:31:45;;;;;;;;;1.00;1.00;;;;;19.12;49.19;101672.84;5057260;28;45362;-86
2022/07/05 01:34:11;;;;;;;;;0.25;0.25;;;;;19.27;49.60;101702.38;5057145;28;45409;-86
2022/07/05 01:36:37;;;;;;;;;1.00;1.00;;;;;19.10;49.39;101677.25;5056894;28;45742;-87
2022/07/05 01:39:05;;;;;;;;;1.00;1.00;;;;;19.05;49.40;101670.06;5038579;28;45995;-86
2022/07/05 01:41:31;;;;;;;;;1.00;1.00;;;;;19.16;50.18;101702.25;5039061;28;45524;-87
2022/07/05 01:43:56;;;;;;;;;1.00;1.00;;;;;19.22;49.97;101709.44;5057126;28;45520;-87
2022/07/05 01:46:24;;;;;;;;;2.00;1.50;;;;;18.99;50.03;101671.78;5057022;28;46328;-87
2022/07/05 01:48:56;;;;;;;;;2.00;2.00;;;;;19.06;49.85;101694.94;5056770;28;45311;-87
2022/07/05 01:51:26;;;;;;;;;1.00;1.00;;;;;18.98;50.35;101694.84;5057348;28;45356;-84
2022/07/05 01:53:52;;;;;;;;;0.75;0.50;;;;;19.07;50.37;101708.31;5056245;28;45414;-87
2022/07/05 01:56:18;;;;;;;;;1.00;1.00;;;;;18.96;50.53;101698.34;5056759;28;45323;-86
2022/07/05 01:58:44;;;;;;;;;1.00;1.00;;;;;18.98;50.23;101702.84;5056894;28;45304;-87
2022/07/05 02:01:09;;;;;;;;;1.00;1.00;;;;;18.63;50.91;101637.44;5038784;28;45488;-85
2022/07/05 02:03:36;;;;;;;;;2.00;2.00;;;;;18.86;50.29;101693.75;5056571;28;45409;-87
2022/07/05 02:06:01;;;;;;;;;1.25;1.25;;;;;18.48;50.97;101620.34;5038675;28;47350;-84
2022/07/05 02:08:30;;;;;;;;;0.00;0.00;;;;;18.71;50.51;101679.31;5055907;28;45347;-85
2022/07/05 02:10:56;;;;;;;;;0.00;0.00;;;;;18.58;50.59;101663.09;5056781;28;45578;-84
2022/07/05 02:13:25;;;;;;;;;1.00;1.00;;;;;18.75;50.09;101698.91;5056625;28;45362;-87
2022/07/05 02:15:50;;;;;;;;;1.00;1.00;;;;;18.47;51.01;101650.50;5056444;28;45632;-83
2022/07/05 02:18:15;;;;;;;;;1.00;1.00;;;;;18.42;50.74;101645.94;5038223;28;45475;-84
2022/07/05 02:20:41;;;;;;;;;1.00;0.75;;;;;18.59;50.77;101688.84;5056751;28;45363;-88
2022/07/05 02:23:07;;;;;;;;;2.00;1.25;;;;;18.69;51.62;101714.81;5037782;28;45490;-85
2022/07/05 02:25:33;;;;;;;;;1.75;1.00;;;;;18.59;51.05;101700.41;5056385;28;45478;-87
2022/07/05 02:27:59;;;;;;;;;1.50;1.25;;;;;18.54;51.30;101700.31;5056165;28;45585;-85
2022/07/05 02:30:24;;;;;;;;;2.00;1.50;;;;;18.49;51.59;101701.09;5051653;28;45513;-84
2022/07/05 02:32:49;;;;;;;;;1.25;1.00;;;;;18.28;52.06;101664.38;5070775;28;48878;-87
2022/07/05 02:35:15;;;;;;;;;1.00;1.00;;;;;18.44;52.35;101702.78;5070538;28;45957;-87
2022/07/05 02:37:40;;;;;;;;;0.50;0.50;;;;;18.21;52.31;101659.78;5051080;28;45039;-84
2022/07/05 02:40:08;;;;;;;;;1.00;1.00;;;;;18.44;52.21;101709.00;5070042;28;44965;-86
2022/07/05 02:42:33;;;;;;;;;1.50;1.50;;;;;18.26;52.79;101680.28;5069749;28;45128;-88
2022/07/05 02:44:59;;;;;;;;;1.50;1.00;;;;;18.24;52.70;101681.16;5071537;28;45476;-86
2022/07/05 02:47:24;;;;;;;;;1.00;1.00;;;;;18.37;52.52;101707.09;5070953;28;44996;-84
2022/07/05 02:49:49;;;;;;;;;2.00;2.00;;;;;18.18;52.90;101671.28;5070454;28;45298;-87
2022/07/05 02:52:15;;;;;;;;;2.00;1.00;;;;;17.99;53.54;101646.09;5052012;28;45258;-84
2022/07/05 02:54:40;;;;;;;;;2.75;2.00;;;;;18.15;53.63;101681.88;5070737;28;45616;-86
2022/07/05 02:57:05;;;;;;;;;2.00;2.00;;;;;18.21;53.27;101697.03;5069166;28;45055;-84
2022/07/05 02:59:31;;;;;;;;;4.00;3.00;;;;;18.00;53.83;101661.19;5069990;28;45092;-84
2022/07/05 03:01:56;;;;;;;;;3.00;2.00;;;;;18.11;54.21;101687.09;5070647;28;45355;-83
2022/07/05 03:04:22;;;;;;;;;1.25;1.00;;;;;17.82;53.94;101642.22;5071878;28;46085;-85
2022/07/05 03:06:47;;;;;;;;;1.75;1.75;;;;;17.79;54.20;101640.41;5071514;28;45112;-87
2022/07/05 03:09:13;;;;;;;;;1.00;0.75;;;;;18.05;54.28;101688.78;5070960;28;45373;-84
2022/07/05 03:11:38;;;;;;;;;2.25;2.25;;;;;18.06;54.39;101705.63;5069829;28;45219;-87
2022/07/05 03:14:03;;;;;;;;;2.50;2.50;;;;;17.79;54.72;101666.13;5069308;28;46130;-84
2022/07/05 03:16:29;;;;;;;;;2.50;1.75;;;;;17.98;54.56;101702.84;5070808;28;45041;-85
2022/07/05 03:18:55;;;;;;;;;1.50;1.50;;;;;17.79;55.03;101680.31;5070125;28;45162;-87
2022/07/05 03:21:20;;;;;;;;;1.75;1.75;;;;;18.03;55.21;101718.91;5070664;28;45566;-87
2022/07/05 03:23:46;;;;;;;;;1.00;1.00;;;;;17.69;55.01;101656.13;5069108;28;45318;-87
2022/07/05 03:26:11;;;;;;;;;2.00;1.50;;;;;17.69;55.38;101672.97;5070581;28;45483;-86
2022/07/05 03:28:36;;;;;;;;;2.25;1.75;;;;;17.66;55.10;101669.34;5070481;28;44931;-85
2022/07/05 03:31:02;;;;;;;;;1.50;1.00;;;;;17.77;55.19;101689.09;5066756;28;44887;-86
2022/07/05 03:33:27;;;;;;;;;2.50;2.00;;;;;17.86;55.25;101712.31;5054350;28;46348;-83
2022/07/05 03:35:52;;;;;;;;;2.25;2.25;;;;;17.71;55.30;101697.81;5054381;28;45534;-87
2022/07/05 03:38:18;;;;;;;;;2.25;1.75;;;;;17.70;56.08;101705.78;5053905;28;45217;-83
2022/07/05 03:40:43;;;;;;;;;2.50;2.50;;;;;17.46;55.74;101667.16;5053448;28;45391;-82
2022/07/05 03:43:09;;;;;;;;;1.75;1.75;;;;;17.49;56.31;101682.31;5035188;28;45395;-87
2022/07/05 03:45:34;;;;;;;;;2.25;1.75;;;;;17.62;56.13;101702.94;5064111;28;45233;-84
2022/07/05 03:48:00;;;;;;;;;3.75;2.75;;;;;17.76;56.37;101740.50;5036668;28;45614;-86
2022/07/05 03:50:27;;;;;;;;;2.25;2.00;;;;;17.52;56.14;101709.81;5054438;28;45412;-83
2022/07/05 03:52:52;;;;;;;;;2.75;1.75;;;;;17.53;56.43;101714.25;5035963;28;47367;-83
2022/07/05 03:55:18;;;;;;;;;1.75;1.75;;;;;17.44;56.44;101692.81;5053584;28;45710;-83
2022/07/05 03:57:43;;;;;;;;;3.25;3.00;;;;;17.45;56.74;101707.91;5050369;28;45636;-84
2022/07/05 04:00:09;;;;;;;;;2.25;2.25;;;;;17.52;56.59;101722.22;5035446;28;45379;-85
2022/07/05 04:02:34;;;;;;;;;3.00;2.75;;;;;17.58;57.02;101729.41;5042203;28;48354;-86
2022/07/05 04:05:00;;;;;;;;;2.75;2.25;;;;;17.62;56.69;101736.59;5043776;28;45542;-86
2022/07/05 04:07:25;;;;;;;;;2.50;2.50;;;;;17.64;57.19;101751.75;5016921;28;45704;-84
2022/07/05 04:09:51;;;;;;;;;2.50;2.50;;;;;17.68;57.14;101752.69;5033305;28;45348;-83
2022/07/05 04:12:16;;;;;;;;;2.00;2.00;;;;;17.60;57.43;101739.25;5041319;28;46332;-87
2022/07/05 04:14:41;;;;;;;;;2.50;2.50;;;;;17.57;56.98;101736.50;5035630;28;45665;-86
2022/07/05 04:17:07;;;;;;;;;1.50;1.50;;;;;17.39;57.76;101710.44;5054799;28;45348;-85
2022/07/05 04:19:32;;;;;;;;;1.50;1.50;;;;;17.65;57.30;101756.19;5055126;28;45446;-86
2022/07/05 04:21:57;;;;;;;;;2.50;2.50;;;;;17.37;57.33;101719.22;5054555;28;45636;-84
2022/07/05 04:24:23;;;;;;;;;3.00;2.50;;;;;17.41;57.48;101721.09;5054205;28;45428;-86
2022/07/05 04:26:48;;;;;;;;;1.75;1.75;;;;;17.30;57.43;101704.91;5053864;28;45582;-86
2022/07/05 04:29:13;;;;;;;;;3.25;3.25;;;;;17.60;57.72;101755.19;5054408;28;45390;-83
2022/07/05 04:31:39;;;;;;;;;2.25;2.25;;;;;17.46;57.84;101730.06;5053501;28;46132;-87
2022/07/05 04:34:04;;;;;;;;;2.75;2.00;;;;;17.62;57.51;101753.44;5036355;28;45801;-86
2022/07/05 04:36:29;;;;;;;;;2.50;2.50;;;;;17.49;57.93;101733.69;5029707;28;45508;-86
2022/07/05 04:38:55;;;;;;;;;4.00;4.00;;;;;17.67;58.08;101764.19;5034632;28;45306;-84
2022/07/05 04:41:20;;;;;;;;;2.25;2.25;;;;;17.54;57.89;101739.13;5049407;28;46194;-84
2022/07/05 04:43:46;;;;;;;;;3.25;2.25;;;;;17.69;57.86;101762.47;5045288;28;45414;-82
2022/07/05 04:46:11;;;;;;;;;3.50;3.00;;;;;17.54;57.92;101741.78;5053660;28;45447;-83
2022/07/05 04:48:36;;;;;;;;;3.50;3.00;;;;;17.46;58.21;101728.28;5050594;28;45705;-85
2022/07/05 04:51:02;;;;;;;;;4.00;4.00;;;;;17.33;57.97;101697.00;5050347;28;45475;-85
2022/07/05 04:53:27;;;;;;;;;3.50;2.75;;;;;17.67;58.10;101751.78;5052855;28;45535;-84
2022/07/05 04:55:52;;;;;;;;;4.50;3.50;;;;;17.50;58.24;101721.31;5053410;28;45642;-84
2022/07/05 04:58:18;;;;;;;;;3.00;2.75;;;;;17.56;58.15;101726.75;5053250;28;45504;-85
2022/07/05 05:00:43;;;;;;;;;4.50;4.00;;;;;17.71;58.33;101756.31;5052074;28;46886;-86
2022/07/05 05:03:08;;;;;;;;;4.25;3.50;;;;;17.65;58.34;101750.88;5054011;28;45561;-83
2022/07/05 05:05:34;;;;;;;;;3.25;3.00;;;;;17.64;58.37;101754.41;5056542;28;45343;-84
2022/07/05 05:07:59;;;;;;;;;4.25;4.00;;;;;17.71;58.84;101760.72;5051455;28;45589;-86
2022/07/05 05:10:24;;;;;;;;;4.75;3.75;;;;;17.51;58.71;101731.94;5054303;28;46383;-86
2022/07/05 05:12:52;;;;;;;;;5.25;5.25;;;;;17.66;59.04;101743.78;5055944;28;45434;-86
2022/07/05 05:15:18;;;;;;;;;5.25;4.50;;;;;17.75;59.20;101759.97;5037950;28;45291;-84
2022/07/05 05:17:44;;;;;;;;;5.00;4.50;;;;;17.71;58.63;101739.47;5055748;28;45621;-86
2022/07/05 05:20:17;;;;;;;;;7.00;6.50;;;;;17.94;59.24;101775.47;5055764;28;45803;-86
2022/07/05 05:22:42;;;;;;;;;4.75;4.75;;;;;17.88;59.17;101756.72;5059586;28;45487;-87
2022/07/05 05:25:08;;;;;;;;;6.50;5.50;;;;;17.81;59.03;101752.13;5061223;28;45355;-83
2022/07/05 05:27:34;;;;;;;;;5.00;4.75;;;;;17.77;58.77;101744.94;5070939;28;45048;-86
2022/07/05 05:29:59;;;;;;;;;4.00;3.00;;;;;17.97;59.04;101777.28;5058661;28;46084;-83
2022/07/05 05:32:25;;;;;;;;;4.25;3.75;;;;;17.76;59.42;101737.84;5055117;28;45395;-83
2022/07/05 05:34:50;;;;;;;;;5.75;5.00;;;;;17.82;58.98;101753.91;5039257;28;45443;-84
2022/07/05 05:37:15;;;;;;;;;6.00;5.75;;;;;17.87;59.34;101752.25;5054425;28;45407;-84
2022/07/05 05:39:41;;;;;;;;;4.00;4.00;;;;;17.98;59.23;101776.41;5035221;28;47226;-85
2022/07/05 05:42:06;;;;;;;;;5.50;4.50;;;;;17.88;58.93;101750.47;5053816;28;45430;-84
2022/07/05 05:44:32;;;;;;;;;4.25;4.25;;;;;18.05;59.22;101784.56;5054173;28;45427;-83
2022/07/05 05:46:57;;;;;;;;;9.25;7.50;;;;;17.88;58.95;101751.41;5054224;28;45374;-84
2022/07/05 05:49:22;;;;;;;;;5.00;4.00;;;;;17.87;59.18;101743.38;5047272;28;45538;-85
2022/07/05 05:51:47;;;;;;;;;3.00;3.00;;;;;17.95;59.71;101763.94;5034552;28;45471;-84
2022/07/05 05:54:13;;;;;;;;;5.00;4.00;;;;;17.95;59.22;101771.94;5016963;28;45276;-85
2022/07/05 05:56:38;;;;;;;;;4.50;3.50;;;;;18.09;59.65;101793.50;5035169;28;45339;-86
2022/07/05 05:59:04;;;;;;;;;3.75;3.75;;;;;17.94;59.43;101755.94;5017247;28;47271;-84
2022/07/05 06:01:30;;;;;;;;;5.00;3.75;;;;;18.26;59.30;101809.81;5040804;28;45497;-85
2022/07/05 06:03:55;;;;;;;;;3.50;2.75;;;;;18.08;59.27;101782.81;5056829;28;45488;-85
2022/07/05 06:06:20;;;;;;;;;4.25;4.00;;;;;18.27;59.64;101800.94;5056504;28;45474;-85
2022/07/05 06:08:46;;;;;;;;;3.25;3.25;;;;;18.22;58.90;101786.66;5055919;28;46269;-85
2022/07/05 06:11:11;;;;;;;;;5.50;4.50;;;;;18.18;58.93;101783.06;5036687;28;45480;-85
2022/07/05 06:13:36;;;;;;;;;3.75;2.75;;;;;18.33;59.76;101789.56;5042173;28;45324;-85
2022/07/05 06:16:02;;;;;;;;;4.75;4.50;;;;;18.28;58.70;101781.47;5035878;28;45372;-86
2022/07/05 06:18:27;;;;;;;;;4.75;4.00;;;;;18.37;59.11;101789.59;5035288;28;46791;-86
2022/07/05 06:20:52;;;;;;;;;2.67;2.67;;;;;18.37;59.02;101778.97;5034721;28;51554;-85
2022/07/05 06:23:18;;;;;;;;;7.00;6.50;;;;;18.41;59.03;101786.13;5034825;28;45297;-86
2022/07/05 06:25:43;;;;;;;;;6.33;5.67;;;;;18.41;58.54;101775.50;5035160;28;45470;-87
2022/07/05 06:42:49;;;;;;;;;5.50;5.50;;;;;18.73;58.48;101812.53;5107984;27;45503;-85
2022/07/05 06:45:15;;;;;;;;;5.50;4.25;;;;;18.65;58.58;101795.47;5091147;27;45834;-85
2022/07/05 06:47:41;;;;;;;;;4.50;4.50;;;;;18.58;58.74;101775.81;5090561;27;45397;-82
2022/07/05 06:50:07;;;;;;;;;7.00;6.00;;;;;18.68;59.05;101785.81;5090756;27;45252;-84
2022/07/05 06:52:33;;;;;;;;;8.25;7.25;;;;;18.90;58.42;101816.38;5090539;27;45240;-83
2022/07/05 06:54:59;;;;;;;;;5.00;5.00;;;;;18.89;57.89;101805.69;5090628;27;45481;-84
2022/07/05 06:57:25;;;;;;;;;6.50;6.00;;;;;18.84;58.32;101796.72;5090666;27;45462;-83
2022/07/05 06:59:51;;;;;;;;;7.00;6.00;;;;;18.84;58.50;101797.63;5090337;27;45595;-84
2022/07/05 07:02:16;;;;;;;;;5.50;4.50;;;;;18.93;58.55;101808.44;5090130;27;45608;-82
2022/07/05 07:04:42;;;;;;;;;6.25;6.25;;;;;18.97;58.08;101799.63;5090294;27;45441;-84
2022/07/05 07:09:51;;;;;;;;;5.00;4.75;;;;;19.03;57.58;101801.50;5090335;27;45427;-84
2022/07/05 07:12:17;;;;;;;;;5.75;5.75;;;;;19.02;58.12;101789.06;5090164;27;45498;-85
2022/07/05 07:14:42;;;;;;;;;7.00;6.00;;;;;19.13;58.38;101808.78;5090356;27;45556;-83
2022/07/05 07:17:08;;;;;;;;;6.00;5.25;;;;;19.11;57.49;101791.84;5089819;27;45331;-83
2022/07/05 07:19:33;;;;;;;;;6.00;5.00;;;;;19.13;57.88;101784.78;5071900;27;45343;-85
2022/07/05 07:21:58;;;;;;;;;4.75;4.00;;;;;19.27;58.48;101798.34;5089728;27;45515;-85
2022/07/05 07:24:24;;;;;;;;;5.00;5.00;;;;;19.43;58.03;101816.38;5090128;27;45240;-86
2022/07/05 07:27:04;;;;;;;;;6.33;6.00;;;;;19.34;57.48;101794.88;5090367;27;45312;-86
2022/07/05 07:29:35;;;;;;;;;5.25;5.00;;;;;19.34;57.40;101786.88;5090199;27;45543;-82
2022/07/05 07:32:02;;;;;;;;;6.25;5.75;;;;;19.62;57.39;101824.69;5089535;27;46473;-84
2022/07/05 07:34:28;;;;;;;;;5.25;5.25;;;;;19.49;56.66;101792.44;5090217;27;46232;-83
2022/07/05 07:36:55;;;;;;;;;7.00;6.50;;;;;19.49;57.17;101792.44;5089846;27;45448;-83
2022/07/05 07:39:20;;;;;;;;;8.25;7.00;;;;;19.70;56.90;101828.34;5089921;27;45410;-83
2022/07/05 07:41:46;;;;;;;;;8.75;8.75;;;;;19.54;56.89;101796.06;5087132;27;45457;-83
2022/07/05 07:44:11;;;;;;;;;6.00;4.00;;;;;19.71;57.22;101830.16;5076383;28;45685;-85
2022/07/05 07:46:39;;;;;;;;;5.50;5.25;;;;;19.69;56.64;101821.22;5075848;28;45300;-85
2022/07/05 07:49:05;;;;;;;;;8.00;7.00;;;;;19.49;56.24;101789.78;5057850;28;45503;-83
2022/07/05 07:51:31;;;;;;;;;5.50;5.00;;;;;19.69;55.93;101816.78;5058109;28;47461;-86
2022/07/05 07:53:56;;;;;;;;;5.25;5.25;;;;;19.57;56.25;101797.91;5076213;27;45453;-84
2022/07/05 07:56:21;;;;;;;;;6.25;5.25;;;;;19.74;56.17;101814.19;5076154;28;45474;-84
2022/07/05 07:58:47;;;;;;;;;4.50;4.50;;;;;19.71;56.11;101815.03;5057886;28;45417;-86
2022/07/05 08:01:13;;;;;;;;;5.00;5.00;;;;;19.79;55.47;101817.81;5075416;28;45501;-84
2022/07/05 08:03:39;;;;;;;;;5.00;5.00;;;;;19.83;54.98;101817.88;5075872;27;45376;-84
2022/07/05 08:06:07;;;;;;;;;6.00;5.50;;;;;19.82;54.91;101812.53;5075874;28;45363;-82
2022/07/05 08:08:33;;;;;;;;;4.25;4.00;;;;;19.82;55.21;101801.84;5074641;28;45393;-85
2022/07/05 08:10:59;;;;;;;;;5.50;5.50;;;;;20.02;55.14;101829.69;5075777;28;46222;-83
2022/07/05 08:13:24;;;;;;;;;3.75;3.75;;;;;19.87;55.27;101805.47;5075901;28;45327;-83
2022/07/05 08:15:50;;;;;;;;;6.75;5.00;;;;;20.12;55.29;101827.16;5075828;27;45299;-82
2022/07/05 08:23:42;;;;;;;;;5.50;5.00;;;;;20.16;54.50;101811.19;5075670;28;45941;-84
2022/07/05 08:26:08;;;;;;;;;3.00;3.00;;;;;19.99;54.21;101768.25;5075801;27;45316;-84
2022/07/05 08:28:33;;;;;;;;;4.33;4.33;;;;;20.07;54.69;101785.28;5056990;28;45468;-84
2022/07/05 08:30:58;;;;;;;;;3.00;3.00;;;;;20.23;54.28;101804.13;5075683;28;45416;-84
2022/07/05 08:33:24;;;;;;;;;4.75;4.00;;;;;20.17;53.72;101777.38;5075172;28;45275;-84
2022/07/05 08:35:49;;;;;;;;;5.00;5.00;;;;;20.29;53.49;101798.88;5075499;28;45457;-86
2022/07/05 08:38:15;;;;;;;;;5.00;5.00;;;;;20.38;53.09;101806.97;5075512;28;45335;-83
2022/07/05 08:40:45;;;;;;;;;6.00;5.00;;;;;20.20;53.22;101766.75;5075066;28;45262;-84
2022/07/05 08:43:14;;;;;;;;;5.50;5.00;;;;;20.37;53.13;101775.81;5075229;27;46032;-85
2022/07/05 08:45:43;;;;;;;;;7.50;5.00;;;;;20.46;53.10;101791.06;5075526;28;45597;-86
2022/07/05 08:48:09;;;;;;;;;4.00;3.00;;;;;20.55;53.19;101792.09;5075146;28;45434;-84
2022/07/05 08:50:36;;;;;;;;;5.00;5.00;;;;;20.53;52.68;101776.91;5056957;28;46409;-86
2022/07/05 08:53:03;;;;;;;;;5.75;5.00;;;;;20.66;52.47;101794.88;5075209;27;46010;-83
2022/07/05 08:55:31;;;;;;;;;4.75;4.75;;;;;20.54;52.56;101768.94;5055982;28;45383;-85
2022/07/05 08:57:57;;;;;;;;;5.00;5.00;;;;;20.64;52.18;101775.25;5075237;28;45591;-84
2022/07/05 09:00:22;;;;;;;;;5.00;5.00;;;;;20.65;51.98;101778.81;5056861;28;47236;-84
2022/07/05 09:02:50;;;;;;;;;4.75;4.75;;;;;20.72;52.09;101778.88;5074942;28;45422;-82
2022/07/05 09:05:18;;;;;;;;;4.00;4.00;;;;;20.86;51.73;101795.94;5075183;28;45452;-83
2022/07/05 09:07:57;;;;;;;;;5.00;5.00;;;;;20.86;51.73;101790.59;5075651;27;45514;-85
2022/07/05 09:10:26;;;;;;;;;4.00;4.00;;;;;20.93;51.30;101794.22;5074694;27;45346;-84
2022/07/05 09:12:51;;;;;;;;;3.00;3.00;;;;;20.83;51.63;101770.97;5073433;27;46153;-84
2022/07/05 09:15:16;;;;;;;;;4.75;4.00;;;;;20.99;51.46;101788.94;5056809;28;45603;-84
2022/07/05 09:17:45;;;;;;;;;4.00;4.00;;;;;20.98;51.73;101775.53;5074494;28;45627;-83
2022/07/05 09:20:13;;;;;;;;;4.00;3.00;;;;;21.09;51.51;101792.59;5073351;28;48004;-84
2022/07/05 09:22:46;;;;;;;;;6.00;4.75;;;;;21.21;51.19;101797.13;5074722;28;46059;-83
2022/07/05 09:25:28;;;;;;;;;5.00;3.00;;;;;21.12;51.52;101780.13;5074809;28;45464;-83
2022/07/05 09:28:04;;;;;;;;;3.25;3.25;;;;;21.23;51.35;101787.31;5056793;28;45574;-85
2022/07/05 09:30:30;;;;;;;;;5.50;5.00;;;;;21.36;50.90;101800.84;5072990;28;48275;-83
2022/07/05 09:33:03;;;;;;;;;4.25;4.25;;;;;21.36;50.60;101797.25;5074270;28;45460;-83
2022/07/05 09:35:32;;;;;;;;;4.50;4.25;;;;;21.34;50.29;101783.91;5074791;28;45370;-84
2022/07/05 09:37:58;;;;;;;;;4.00;4.00;;;;;21.29;50.61;101766.00;5073172;28;45598;-83
2022/07/05 09:40:23;;;;;;;;;3.25;3.25;;;;;21.58;50.29;101801.88;5074373;28;45418;-85
2022/07/05 09:42:49;;;;;;;;;6.25;5.75;;;;;21.64;50.33;101806.38;5074373;27;45361;-84
2022/07/05 09:45:23;;;;;;;;;5.75;5.75;;;;;21.62;49.69;101793.00;5056408;28;45537;-83
2022/07/05 09:47:49;;;;;;;;;4.00;4.00;;;;;21.71;49.36;101800.16;5074173;28;45458;-85
2022/07/05 09:50:14;;;;;;;;;3.75;3.75;;;;;21.62;49.43;101787.66;5055927;28;45736;-84
2022/07/05 09:52:41;;;;;;;;;4.25;4.00;;;;;21.76;48.95;101801.06;5074315;27;45400;-83
2022/07/05 09:55:11;;;;;;;;;3.00;3.00;;;;;21.78;48.33;101795.75;5074270;27;45478;-84
2022/07/05 09:57:41;;;;;;;;;4.00;3.50;;;;;21.69;48.92;101769.84;5073014;28;45491;-83
2022/07/05 10:00:21;;;;;;;;;3.25;3.25;;;;;21.82;48.74;101773.44;5074076;28;45409;-83
2022/07/05 10:03:00;;;;;;;;;4.00;4.00;;;;;22.08;48.60;101803.03;5073866;28;45331;-85
2022/07/05 10:05:27;;;;;;;;;5.00;4.00;;;;;22.09;48.11;101786.97;5074184;27;45570;-83
2022/07/05 10:07:55;;;;;;;;;4.00;4.00;;;;;22.01;47.86;101763.72;5074184;28;45573;-82
2022/07/05 10:10:22;;;;;;;;;4.25;4.00;;;;;22.11;47.54;101773.59;5074099;28;47170;-82
2022/07/05 10:12:49;;;;;;;;;4.25;4.25;;;;;22.31;47.45;101797.78;5074110;28;45448;-84
2022/07/05 10:15:36;;;;;;;;;4.00;4.00;;;;;22.32;47.54;101799.59;5055969;28;45324;-84
2022/07/05 10:18:11;;;;;;;;;5.25;5.00;;;;;22.38;47.48;101786.22;5071990;28;45500;-83
2022/07/05 10:20:37;;;;;;;;;4.00;4.00;;;;;22.53;46.90;101791.59;5073877;28;45483;-86
2022/07/05 10:23:06;;;;;;;;;5.00;4.50;;;;;22.46;47.02;101784.41;5073877;28;45429;-85
2022/07/05 10:25:34;;;;;;;;;4.50;4.25;;;;;22.47;47.28;101764.81;5074219;27;45527;-83
2022/07/05 10:28:00;;;;;;;;;4.50;4.50;;;;;22.51;46.15;101765.69;5073953;28;45509;-83
2022/07/05 10:30:26;;;;;;;;;4.00;4.00;;;;;22.54;46.49;101769.25;5074213;28;46623;-84
2022/07/05 10:32:52;;;;;;;;;4.75;4.50;;;;;22.75;46.45;101795.19;5072334;28;45318;-85
2022/07/05 10:35:18;;;;;;;;;4.75;4.75;;;;;22.79;46.27;101797.00;5056276;27;45362;-85
2022/07/05 10:37:45;;;;;;;;;3.00;3.00;;;;;22.71;45.95;101774.66;5072909;28;45574;-84
2022/07/05 10:40:11;;;;;;;;;6.00;6.00;;;;;22.91;45.55;101796.16;5073766;28;45379;-83
2022/07/05 10:43:10;;;;;;;;;4.50;4.50;;;;;22.89;45.67;101789.88;5073656;28;45335;-86
2022/07/05 10:45:55;;;;;;;;;4.50;3.75;;;;;23.00;45.44;101798.81;5042620;28;45449;-84
2022/07/05 10:48:28;;;;;;;;;4.25;4.25;;;;;22.92;45.52;101760.41;5071616;28;45295;-84
2022/07/05 10:50:56;;;;;;;;;5.00;4.25;;;;;23.09;45.78;101787.19;5074253;27;46467;-85
2022/07/05 10:53:39;;;;;;;;;5.00;5.00;;;;;23.15;45.54;101780.06;5074305;27;45471;-83
2022/07/05 10:56:04;;;;;;;;;4.50;4.25;;;;;23.25;45.20;101786.31;5073696;28;45442;-83
2022/07/05 10:58:37;;;;;;;;;5.33;5.33;;;;;23.33;45.11;101783.59;5073657;28;45481;-84
2022/07/05 11:01:20;;;;;;;;;5.00;5.00;;;;;23.38;44.94;101781.81;5073344;28;45313;-86
2022/07/05 11:04:01;;;;;;;;;7.00;7.00;;;;;23.41;44.67;101781.81;5073545;28;45869;-85
2022/07/05 11:06:29;;;;;;;;;6.25;5.75;;;;;23.29;44.43;101752.31;5073669;28;45488;-85
2022/07/05 11:09:02;;;;;;;;;8.00;5.25;;;;;23.50;44.55;101775.53;5073767;28;45367;-85
2022/07/05 11:11:32;;;;;;;;;5.25;4.75;;;;;23.41;44.63;101755.00;5074057;27;46128;-84
2022/07/05 11:13:59;;;;;;;;;5.00;5.00;;;;;23.61;43.94;101774.59;5073541;28;45288;-83
2022/07/05 11:16:29;;;;;;;;;5.00;5.00;;;;;23.73;43.67;101776.38;5073077;28;45390;-86
2022/07/05 11:19:17;;;;;;;;;6.50;6.50;;;;;23.79;43.57;101776.38;5076500;28;45421;-83
2022/07/05 11:22:05;;;;;;;;;4.50;4.00;;;;;23.81;43.76;101776.38;5076817;27;46331;-84
2022/07/05 11:24:35;;;;;;;;;5.00;5.00;;;;;23.85;43.54;101776.34;5058408;28;45815;-85
2022/07/05 11:27:03;;;;;;;;;6.75;6.00;;;;;23.87;43.59;101768.28;5076773;27;45447;-85
2022/07/05 11:29:48;;;;;;;;;4.00;4.00;;;;;23.98;43.83;101777.19;5076849;27;45407;-85
2022/07/05 11:32:37;;;;;;;;;4.50;4.50;;;;;24.05;43.37;101772.69;5076168;28;45397;-83
2022/07/05 11:35:19;;;;;;;;;5.75;5.00;;;;;24.12;43.44;101777.13;5076132;28;45390;-84
2022/07/05 11:38:06;;;;;;;;;5.75;5.75;;;;;24.05;43.23;101749.41;5076620;28;45464;-83
2022/07/05 11:40:37;;;;;;;;;6.25;6.25;;;;;24.06;42.48;101737.75;5076440;27;45360;-84
2022/07/05 11:43:06;;;;;;;;;4.00;3.50;;;;;24.31;42.34;101773.44;5076778;27;45751;-84
2022/07/05 11:45:33;;;;;;;;;6.25;4.50;;;;;24.35;42.73;101759.09;5076439;28;45366;-84
2022/07/05 11:47:58;;;;;;;;;5.00;5.00;;;;;24.37;42.81;101751.03;5057961;28;45380;-85